Time;durP1;ratioP1;P1;durP2;ratioP2;P2;SDS_P1;SDS_P2;PMS_P1;PMS_P2;Temp;Humidity;BMP_temperature;BMP_pressure;BME280_temperature;BME280_humidity;BME280_pressure;Samples;Min_cycle;Max_cycle;Signal;HPM_P1;HPM_P2
2024/01/26 00:01:10;;;;;;;1.60;1.10;;;9.50;98.20;;;;;;5028195;28;20491;-81
2024/01/26 00:03:39;;;;;;;1.60;1.20;;;9.50;98.20;;;;;;5037263;28;20463;-80
2024/01/26 00:06:07;;;;;;;1.60;1.30;;;9.50;98.20;;;;;;5026938;28;20537;-82
2024/01/26 00:08:34;;;;;;;1.60;1.17;;;9.50;98.20;;;;;;5033721;28;20451;-81
2024/01/26 00:11:04;;;;;;;1.60;1.10;;;9.50;98.20;;;;;;5025042;28;20597;-82
2024/01/26 00:13:33;;;;;;;1.60;1.20;;;9.50;98.20;;;;;;5031596;28;20459;-81
2024/01/26 00:16:00;;;;;;;1.60;1.20;;;9.50;98.20;;;;;;5020277;28;20487;-82
2024/01/26 00:18:27;;;;;;;1.60;1.20;;;9.50;98.20;;;;;;5031742;28;20478;-84
2024/01/26 00:21:04;;;;;;;1.60;1.17;;;9.50;98.20;;;;;;5022941;28;20490;-84
2024/01/26 00:23:47;;;;;;;1.60;1.10;;;9.50;98.20;;;;;;5032173;28;20474;-84
2024/01/26 00:26:22;;;;;;;1.60;1.17;;;9.50;98.20;;;;;;5024715;28;20557;-83
2024/01/26 00:28:51;;;;;;;1.57;1.10;;;9.50;98.20;;;;;;5034266;28;20450;-83
2024/01/26 00:31:19;;;;;;;1.60;1.10;;;9.50;98.20;;;;;;5025820;28;20473;-84
2024/01/26 00:33:46;;;;;;;1.60;1.20;;;9.50;98.20;;;;;;5038375;28;20455;-83
2024/01/26 00:36:17;;;;;;;1.53;1.10;;;9.50;98.20;;;;;;5027205;28;20490;-82
2024/01/26 00:38:54;;;;;;;1.60;1.10;;;9.50;98.20;;;;;;5037896;28;20831;-84
2024/01/26 00:41:35;;;;;;;1.60;1.17;;;9.50;98.20;;;;;;5026571;28;20479;-82
2024/01/26 00:44:04;;;;;;;1.60;1.20;;;9.50;98.20;;;;;;5038669;28;20550;-82
2024/01/26 00:46:40;;;;;;;1.60;1.20;;;9.50;98.20;;;;;;5026787;28;20501;-81
2024/01/26 00:49:09;;;;;;;1.60;1.20;;;9.50;98.20;;;;;;5037807;28;20733;-82
2024/01/26 00:51:43;;;;;;;1.60;1.10;;;9.50;98.20;;;;;;5025547;28;20472;-81
2024/01/26 00:54:14;;;;;;;1.60;1.10;;;9.50;98.20;;;;;;5039456;28;20486;-81
2024/01/26 00:56:41;;;;;;;1.60;1.10;;;9.50;98.20;;;;;;5030555;28;20483;-81
2024/01/26 01:01:41;;;;;;;1.60;1.20;;;9.50;98.20;;;;;;5048690;28;20490;-82
2024/01/26 01:04:14;;;;;;;1.60;1.20;;;9.50;98.20;;;;;;5062172;28;20493;-81
2024/01/26 01:06:42;;;;;;;1.60;1.17;;;9.60;98.20;;;;;;5055529;28;21074;-81
2024/01/26 01:09:11;;;;;;;2.83;2.63;;;9.50;98.20;;;;;;5063280;28;20518;-82
2024/01/26 01:11:42;;;;;;;1.60;1.20;;;9.50;98.20;;;;;;5033277;28;20512;-83
2024/01/26 01:14:12;;;;;;;1.60;1.10;;;9.60;98.20;;;;;;5049781;28;20471;-81
2024/01/26 01:16:39;;;;;;;1.60;1.10;;;9.60;98.20;;;;;;5037826;28;20961;-82
2024/01/26 01:19:10;;;;;;;1.60;1.20;;;9.60;98.20;;;;;;5042750;28;20514;-80
2024/01/26 01:21:40;;;;;;;1.60;1.10;;;9.60;98.20;;;;;;5035944;28;20514;-80
2024/01/26 01:24:11;;;;;;;1.53;1.10;;;9.60;98.20;;;;;;5048747;28;20456;-81
2024/01/26 01:26:39;;;;;;;1.60;1.10;;;9.60;98.20;;;;;;5034900;28;20541;-81
2024/01/26 01:29:06;;;;;;;1.60;1.10;;;9.60;98.20;;;;;;5050798;28;20475;-80
2024/01/26 01:31:33;;;;;;;3.37;3.10;;;9.60;98.20;;;;;;5038585;28;20505;-81
2024/01/26 01:34:05;;;;;;;1.60;1.20;;;9.60;98.20;;;;;;5052757;28;20498;-82
2024/01/26 01:36:31;;;;;;;1.60;1.10;;;9.60;98.20;;;;;;5037303;28;20485;-82
2024/01/26 01:38:58;;;;;;;1.57;1.10;;;9.60;98.20;;;;;;5052129;28;20495;-83
2024/01/26 01:41:25;;;;;;;1.53;1.10;;;9.60;98.20;;;;;;5036393;28;20466;-82
2024/01/26 01:43:55;;;;;;;1.60;1.20;;;9.60;98.20;;;;;;5053682;28;20471;-81
2024/01/26 01:46:22;;;;;;;1.60;1.30;;;9.70;98.20;;;;;;5036292;28;20494;-80
2024/01/26 01:48:50;;;;;;;1.60;1.20;;;9.70;98.20;;;;;;5056904;28;20484;-81
2024/01/26 01:51:17;;;;;;;1.50;1.10;;;9.70;98.20;;;;;;5036815;28;20481;-82
2024/01/26 01:53:47;;;;;;;1.60;1.10;;;9.70;98.20;;;;;;5052971;28;20535;-82
2024/01/26 01:56:16;;;;;;;1.60;1.20;;;9.70;98.20;;;;;;5035275;28;20473;-82
2024/01/26 01:58:42;;;;;;;1.57;1.07;;;9.70;98.20;;;;;;5053250;28;20669;-82
2024/01/26 02:01:11;;;;;;;1.60;1.10;;;9.70;98.20;;;;;;5029088;28;20500;-80
2024/01/26 02:03:41;;;;;;;1.57;1.10;;;9.80;98.20;;;;;;5049483;28;20471;-83
2024/01/26 02:06:08;;;;;;;1.60;1.10;;;9.80;98.20;;;;;;5018749;28;20838;-83
2024/01/26 02:08:37;;;;;;;1.57;1.10;;;9.80;98.20;;;;;;5049644;28;20463;-83
2024/01/26 02:11:12;;;;;;;1.60;1.20;;;9.90;98.20;;;;;;5028489;28;20455;-81
2024/01/26 02:13:42;;;;;;;1.60;1.10;;;9.90;98.20;;;;;;5046971;28;20593;-83
2024/01/26 02:16:17;;;;;;;1.60;1.10;;;9.90;98.20;;;;;;5026695;28;20936;-81
2024/01/26 02:19:01;;;;;;;1.60;1.20;;;10.00;98.20;;;;;;5048615;28;20497;-81
2024/01/26 02:21:38;;;;;;;1.60;1.20;;;10.00;98.20;;;;;;5028262;28;20573;-80
2024/01/26 02:24:10;;;;;;;1.60;1.20;;;10.00;98.20;;;;;;5045353;28;20559;-80
2024/01/26 02:26:39;;;;;;;1.60;1.10;;;10.00;98.20;;;;;;5030372;28;20514;-80
2024/01/26 02:29:10;;;;;;;1.60;1.17;;;10.10;98.20;;;;;;5041441;28;20504;-81
2024/01/26 02:31:45;;;;;;;1.60;1.10;;;10.10;98.20;;;;;;5029670;28;20545;-81
2024/01/26 02:34:12;;;;;;;1.53;1.10;;;10.10;98.20;;;;;;5042781;28;20473;-81
2024/01/26 02:36:39;;;;;;;1.70;1.60;;;10.10;98.20;;;;;;5022786;28;20540;-80
2024/01/26 02:39:11;;;;;;;1.60;1.10;;;10.20;98.20;;;;;;5038807;28;20514;-80
2024/01/26 02:41:38;;;;;;;1.60;1.20;;;10.20;98.20;;;;;;5030745;28;20866;-80
2024/01/26 02:44:06;;;;;;;1.60;1.17;;;10.20;98.20;;;;;;5047144;28;20590;-81
2024/01/26 02:46:33;;;;;;;1.57;1.10;;;10.20;98.20;;;;;;5031131;28;20466;-82
2024/01/26 02:49:00;;;;;;;1.60;1.10;;;10.30;98.20;;;;;;5046947;28;20491;-80
2024/01/26 02:51:29;;;;;;;1.60;1.30;;;10.30;98.20;;;;;;5031131;28;20470;-82
2024/01/26 02:53:57;;;;;;;1.60;1.20;;;10.30;98.20;;;;;;5048222;28;20467;-81
2024/01/26 02:56:25;;;;;;;1.60;1.07;;;10.30;98.20;;;;;;5030869;28;20472;-81
2024/01/26 02:58:52;;;;;;;1.60;1.20;;;10.30;98.20;;;;;;5049054;28;20467;-82
2024/01/26 03:01:19;;;;;;;1.60;1.20;;;10.30;98.20;;;;;;5030462;28;20529;-82
2024/01/26 03:03:45;;;;;;;1.60;1.20;;;10.30;98.20;;;;;;5046652;28;20981;-81
2024/01/26 03:06:12;;;;;;;1.57;1.10;;;10.30;98.20;;;;;;5029419;28;20458;-84
2024/01/26 03:08:39;;;;;;;1.60;1.20;;;10.30;98.20;;;;;;5049171;28;20463;-82
2024/01/26 03:11:09;;;;;;;1.60;1.07;;;10.30;98.20;;;;;;5030224;28;20515;-82
2024/01/26 03:13:40;;;;;;;1.60;1.10;;;10.30;98.20;;;;;;5055254;28;20459;-83
2024/01/26 03:16:09;;;;;;;1.60;1.20;;;10.40;98.20;;;;;;5034114;28;20526;-81
2024/01/26 03:18:43;;;;;;;1.60;1.10;;;10.40;98.20;;;;;;5055875;28;20961;-82
2024/01/26 03:21:10;;;;;;;1.60;1.10;;;10.40;98.20;;;;;;5029326;28;20564;-81
2024/01/26 03:23:38;;;;;;;1.60;1.10;;;10.30;98.20;;;;;;5049316;28;20488;-81
2024/01/26 03:26:05;;;;;;;1.60;1.17;;;10.30;98.20;;;;;;5026108;28;20467;-81
2024/01/26 03:28:32;;;;;;;1.60;1.10;;;10.30;98.20;;;;;;5049637;28;20467;-81
2024/01/26 03:31:00;;;;;;;1.60;1.20;;;10.40;98.20;;;;;;5027114;28;20570;-81
2024/01/26 03:33:26;;;;;;;1.60;1.10;;;10.30;98.20;;;;;;5049885;28;20495;-81
2024/01/26 03:35:53;;;;;;;1.60;1.10;;;10.40;98.20;;;;;;5026530;28;20498;-82
2024/01/26 03:38:20;;;;;;;1.60;1.10;;;10.40;98.20;;;;;;5049652;28;21290;-81
2024/01/26 03:40:47;;;;;;;1.60;1.10;;;10.40;98.20;;;;;;5027857;28;20483;-81
2024/01/26 03:43:14;;;;;;;1.60;1.10;;;10.40;98.20;;;;;;5050483;28;20471;-81
2024/01/26 03:45:41;;;;;;;1.70;1.40;;;10.40;98.20;;;;;;5037661;28;20550;-81
2024/01/26 03:48:09;;;;;;;1.57;1.10;;;10.40;98.20;;;;;;5046083;28;20471;-81
2024/01/26 03:50:36;;;;;;;1.50;1.00;;;10.40;98.20;;;;;;5038642;28;21009;-81
2024/01/26 03:53:03;;;;;;;1.60;1.23;;;10.40;98.20;;;;;;5046442;28;20562;-80
2024/01/26 03:55:37;;;;;;;1.57;1.00;;;10.40;98.20;;;;;;5037959;28;20599;-82
2024/01/26 03:58:04;;;;;;;1.57;1.07;;;10.40;98.20;;;;;;5043669;28;20465;-80
2024/01/26 04:00:32;;;;;;;1.60;1.17;;;10.40;98.20;;;;;;5039607;28;20497;-81
2024/01/26 04:02:59;;;;;;;1.53;1.10;;;10.40;98.20;;;;;;5047437;28;20911;-82
2024/01/26 04:05:29;;;;;;;1.60;1.10;;;10.40;98.20;;;;;;5039730;28;20532;-82
2024/01/26 04:07:56;;;;;;;1.57;1.10;;;10.40;98.20;;;;;;5044587;28;20482;-81
2024/01/26 04:10:22;;;;;;;1.60;1.30;;;10.40;98.20;;;;;;5040401;28;20558;-82
2024/01/26 04:12:49;;;;;;;1.57;1.10;;;10.40;98.20;;;;;;5045827;28;20525;-81
2024/01/26 04:15:16;;;;;;;3.30;2.67;;;10.40;98.20;;;;;;5040183;28;20475;-82
2024/01/26 04:17:43;;;;;;;1.50;1.10;;;10.40;98.20;;;;;;5047080;28;20478;-82
2024/01/26 04:20:13;;;;;;;1.60;1.10;;;10.40;98.20;;;;;;5044369;28;20510;-80
2024/01/26 04:22:43;;;;;;;1.60;1.10;;;10.40;98.20;;;;;;5047366;28;20486;-81
2024/01/26 04:25:10;;;;;;;1.60;1.10;;;10.40;98.20;;;;;;5042446;28;20470;-81
2024/01/26 04:27:38;;;;;;;1.60;1.10;;;10.40;98.20;;;;;;5046614;28;20603;-80
2024/01/26 04:30:06;;;;;;;1.60;1.10;;;10.40;98.20;;;;;;5041516;28;20483;-80
2024/01/26 04:32:33;;;;;;;1.57;1.10;;;10.40;98.20;;;;;;5045201;28;20490;-83
2024/01/26 04:35:00;;;;;;;1.60;1.20;;;10.40;98.20;;;;;;5044897;28;20558;-81
2024/01/26 04:37:27;;;;;;;1.60;1.20;;;10.40;98.20;;;;;;5042539;28;20475;-80
2024/01/26 04:39:55;;;;;;;1.60;1.20;;;10.40;98.20;;;;;;5038838;28;20479;-80
2024/01/26 04:42:21;;;;;;;1.60;1.10;;;10.40;98.20;;;;;;5041402;28;20480;-82
2024/01/26 04:44:48;;;;;;;1.57;1.10;;;10.40;98.20;;;;;;5042094;28;20463;-80
2024/01/26 04:47:16;;;;;;;1.63;1.30;;;10.40;98.20;;;;;;5040147;28;20474;-80
2024/01/26 04:49:43;;;;;;;1.60;1.10;;;10.40;98.20;;;;;;5046521;28;21237;-80
2024/01/26 04:52:10;;;;;;;1.57;1.10;;;10.40;98.20;;;;;;5042967;28;20540;-81
2024/01/26 04:54:37;;;;;;;1.53;1.10;;;10.40;98.20;;;;;;5045672;28;20470;-80
2024/01/26 04:57:06;;;;;;;1.60;1.20;;;10.40;98.20;;;;;;5036887;28;20478;-80
2024/01/26 04:59:34;;;;;;;1.60;1.17;;;10.40;98.20;;;;;;5044680;28;21425;-81
2024/01/26 05:02:01;;;;;;;2.87;1.93;;;10.40;98.20;;;;;;5040546;28;20478;-81
2024/01/26 05:04:27;;;;;;;1.57;1.00;;;10.50;98.20;;;;;;5046602;28;20618;-81
2024/01/26 05:06:55;;;;;;;1.57;1.07;;;10.50;98.20;;;;;;5042422;28;20474;-80
2024/01/26 05:09:22;;;;;;;1.60;1.00;;;10.50;98.20;;;;;;5045224;28;21119;-82
2024/01/26 05:11:49;;;;;;;1.60;1.10;;;10.50;98.20;;;;;;5037779;28;20517;-79
2024/01/26 05:14:17;;;;;;;1.60;1.20;;;10.50;98.20;;;;;;5047509;28;20916;-82
2024/01/26 05:16:44;;;;;;;1.50;1.00;;;10.40;98.20;;;;;;5036324;28;21115;-81
2024/01/26 05:19:11;;;;;;;1.60;1.40;;;10.40;98.20;;;;;;5048849;28;20487;-81
2024/01/26 05:21:38;;;;;;;1.60;1.10;;;10.40;98.20;;;;;;5037851;28;20536;-81
2024/01/26 05:24:05;;;;;;;1.60;1.10;;;10.40;98.20;;;;;;5046755;28;20539;-81
2024/01/26 05:26:38;;;;;;;1.60;1.13;;;10.40;98.20;;;;;;5033324;28;20565;-82
2024/01/26 05:29:06;;;;;;;1.60;1.10;;;10.40;98.20;;;;;;5044242;28;20487;-82
2024/01/26 05:31:35;;;;;;;1.60;1.10;;;10.40;98.20;;;;;;5033583;28;20545;-79
2024/01/26 05:34:02;;;;;;;1.60;1.10;;;10.40;98.20;;;;;;5050800;28;20460;-80
2024/01/26 05:36:29;;;;;;;1.60;1.20;;;10.40;98.20;;;;;;5034819;28;20487;-83
2024/01/26 05:38:55;;;;;;;1.60;1.20;;;10.40;98.20;;;;;;5046836;28;20526;-80
2024/01/26 05:41:22;;;;;;;1.57;1.20;;;10.40;98.20;;;;;;5033486;28;20475;-82
2024/01/26 05:43:50;;;;;;;1.60;1.10;;;10.40;98.20;;;;;;5050509;28;21035;-82
2024/01/26 05:46:17;;;;;;;1.50;1.10;;;10.40;98.20;;;;;;5031973;28;20484;-82
2024/01/26 05:48:48;;;;;;;1.57;1.10;;;10.30;98.20;;;;;;5052144;28;20452;-82
2024/01/26 05:51:18;;;;;;;1.60;1.20;;;10.30;98.20;;;;;;5033936;28;20481;-81
2024/01/26 05:54:04;;;;;;;1.60;1.10;;;10.30;98.20;;;;;;5051745;28;20481;-83
2024/01/26 05:56:31;;;;;;;1.60;1.10;;;10.30;98.20;;;;;;5035490;28;20488;-80
2024/01/26 05:58:58;;;;;;;1.60;1.23;;;10.30;98.20;;;;;;5050449;28;20497;-81
2024/01/26 06:02:04;;;;;;;1.60;1.10;;;10.30;98.20;;;;;;5033868;28;20463;-81
2024/01/26 06:04:32;;;;;;;1.60;1.10;;;10.30;98.20;;;;;;5026970;28;20531;-82
2024/01/26 06:06:59;;;;;;;1.60;1.10;;;10.30;98.20;;;;;;5036405;28;20541;-82
2024/01/26 06:09:26;;;;;;;1.60;1.10;;;10.40;98.20;;;;;;5044141;28;20479;-81
2024/01/26 06:11:53;;;;;;;1.60;1.13;;;10.40;98.20;;;;;;5036189;28;20852;-83
2024/01/26 06:14:21;;;;;;;1.60;1.10;;;10.50;98.20;;;;;;5045111;28;20460;-82
2024/01/26 06:16:50;;;;;;;1.60;1.10;;;10.60;98.20;;;;;;5032941;28;20530;-81
2024/01/26 06:19:17;;;;;;;1.53;1.10;;;10.60;98.20;;;;;;5043313;28;20497;-80
2024/01/26 06:21:55;;;;;;;1.50;1.10;;;10.60;98.20;;;;;;5034582;28;20475;-79
2024/01/26 06:24:22;;;;;;;1.60;1.20;;;10.60;98.20;;;;;;5043989;28;20823;-81
2024/01/26 06:26:49;;;;;;;1.60;1.10;;;10.60;98.20;;;;;;5037266;28;20488;-82
2024/01/26 06:29:16;;;;;;;1.60;1.10;;;10.60;98.20;;;;;;5039811;28;20599;-81
2024/01/26 06:31:46;;;;;;;1.60;1.10;;;10.60;98.20;;;;;;5036508;28;20466;-80
2024/01/26 06:34:13;;;;;;;1.57;1.03;;;10.70;98.20;;;;;;5044152;28;20463;-79
2024/01/26 06:36:40;;;;;;;1.57;1.10;;;10.70;98.20;;;;;;5034542;28;20484;-80
2024/01/26 06:39:09;;;;;;;1.53;1.10;;;10.70;98.20;;;;;;5041766;28;20552;-81
2024/01/26 06:42:02;;;;;;;1.57;1.10;;;10.80;98.20;;;;;;5033481;28;20486;-80
2024/01/26 06:44:29;;;;;;;1.57;1.00;;;10.70;98.20;;;;;;5042390;28;20467;-83
2024/01/26 06:46:56;;;;;;;1.57;1.10;;;10.80;98.20;;;;;;5038841;28;20517;-82
2024/01/26 06:49:22;;;;;;;1.60;1.00;;;10.70;98.20;;;;;;5045484;28;20499;-82
2024/01/26 06:51:51;;;;;;;1.60;1.10;;;10.70;98.20;;;;;;5039749;28;20466;-81
2024/01/26 06:54:26;;;;;;;1.60;1.20;;;10.70;98.20;;;;;;5046669;28;20467;-80
2024/01/26 06:56:53;;;;;;;1.60;1.10;;;10.70;98.20;;;;;;5036772;28;20482;-82
2024/01/26 06:59:20;;;;;;;1.60;1.07;;;10.70;98.20;;;;;;5044707;28;20483;-82
2024/01/26 07:01:47;;;;;;;1.53;1.07;;;10.70;98.20;;;;;;5083131;22;20518;-78
2024/01/26 07:04:13;;;;;;;1.60;1.20;;;10.70;98.20;;;;;;5082802;28;20500;-77
2024/01/26 07:06:40;;;;;;;1.60;1.10;;;10.70;98.20;;;;;;5063291;28;20475;-76
2024/01/26 07:09:08;;;;;;;5.40;5.00;;;10.60;98.20;;;;;;5074891;28;20499;-77
2024/01/26 07:11:38;;;;;;;1.60;1.10;;;10.60;98.20;;;;;;5055158;28;20511;-77
2024/01/26 07:14:05;;;;;;;1.53;1.03;;;10.60;98.20;;;;;;5068072;28;20990;-77
2024/01/26 07:16:31;;;;;;;1.60;1.10;;;10.50;98.20;;;;;;5053662;28;21143;-76
2024/01/26 07:18:58;;;;;;;1.50;1.00;;;10.50;98.20;;;;;;5065059;28;20500;-77
2024/01/26 07:21:25;;;;;;;1.60;1.10;;;10.50;98.20;;;;;;5054102;28;20484;-78
2024/01/26 07:23:52;;;;;;;1.57;1.10;;;10.50;98.20;;;;;;5059510;28;20457;-76
2024/01/26 07:26:19;;;;;;;1.60;1.10;;;10.40;98.20;;;;;;5048764;28;20858;-77
2024/01/26 07:28:48;;;;;;;1.60;1.10;;;10.40;98.20;;;;;;5062931;28;20519;-78
2024/01/26 07:31:15;;;;;;;1.60;1.10;;;10.40;98.20;;;;;;5055455;28;20477;-78
2024/01/26 07:33:42;;;;;;;1.60;1.20;;;10.30;98.20;;;;;;5065397;28;20457;-78
2024/01/26 07:36:09;;;;;;;1.60;1.20;;;10.30;98.20;;;;;;5052007;28;20486;-78
2024/01/26 07:38:36;;;;;;;1.57;1.10;;;10.30;98.20;;;;;;5069432;28;20566;-78
2024/01/26 07:41:03;;;;;;;1.57;1.10;;;10.30;98.20;;;;;;5047226;28;20503;-79
2024/01/26 07:43:30;;;;;;;1.60;1.27;;;10.30;98.20;;;;;;5062299;28;20454;-80
2024/01/26 07:45:58;;;;;;;1.57;1.10;;;10.30;98.20;;;;;;5052058;28;20457;-80
2024/01/26 07:48:25;;;;;;;1.57;1.10;;;10.30;98.20;;;;;;5059891;28;20454;-81
2024/01/26 07:50:51;;;;;;;1.53;1.10;;;10.20;98.20;;;;;;5053022;28;20855;-81
2024/01/26 07:53:18;;;;;;;1.60;1.10;;;10.20;98.20;;;;;;5062327;28;20513;-82
2024/01/26 07:55:45;;;;;;;1.60;1.10;;;10.20;98.20;;;;;;5063044;28;20463;-82
2024/01/26 07:58:12;;;;;;;1.60;1.10;;;10.20;98.20;;;;;;5051974;28;20466;-82
2024/01/26 08:00:39;;;;;;;1.53;1.00;;;10.20;98.20;;;;;;5062095;28;20508;-81
2024/01/26 08:03:07;;;;;;;1.57;1.10;;;10.20;98.20;;;;;;5061966;28;20686;-82
2024/01/26 08:05:33;;;;;;;1.60;1.10;;;10.20;98.20;;;;;;5060966;28;20765;-82
2024/01/26 08:08:00;;;;;;;1.60;1.10;;;10.20;98.20;;;;;;5057304;28;20603;-81
2024/01/26 08:10:27;;;;;;;1.57;1.10;;;10.20;98.20;;;;;;5061223;28;20492;-79
2024/01/26 08:12:54;;;;;;;1.60;1.10;;;10.20;98.20;;;;;;5050918;28;20901;-79
2024/01/26 08:15:21;;;;;;;1.60;1.10;;;10.20;98.20;;;;;;5061274;28;20458;-82
2024/01/26 08:17:48;;;;;;;1.60;1.20;;;10.20;98.20;;;;;;5054415;28;20470;-79
2024/01/26 08:20:16;;;;;;;1.60;1.20;;;10.30;98.20;;;;;;5061836;28;20490;-81
2024/01/26 08:22:43;;;;;;;1.60;1.10;;;10.30;98.20;;;;;;5051211;28;21008;-81
2024/01/26 08:25:10;;;;;;;1.60;1.10;;;10.30;98.20;;;;;;5058814;28;20484;-81
2024/01/26 08:27:37;;;;;;;1.60;1.10;;;10.30;98.20;;;;;;5052668;28;20486;-78
2024/01/26 08:30:05;;;;;;;1.57;1.03;;;10.40;98.20;;;;;;5059234;28;21025;-78
2024/01/26 08:32:32;;;;;;;1.60;1.20;;;10.40;98.20;;;;;;5048501;28;20535;-77
2024/01/26 08:34:59;;;;;;;1.60;1.10;;;10.50;98.20;;;;;;5059964;28;20990;-77
2024/01/26 08:37:28;;;;;;;1.60;1.20;;;10.50;98.20;;;;;;5045430;28;20501;-81
2024/01/26 08:39:55;;;;;;;1.60;1.17;;;10.60;98.20;;;;;;5061571;28;20482;-81
2024/01/26 08:42:22;;;;;;;1.53;1.03;;;10.60;98.20;;;;;;5051420;28;20477;-81
2024/01/26 08:44:48;;;;;;;1.60;1.10;;;10.70;98.20;;;;;;5063634;28;20855;-77
2024/01/26 08:47:15;;;;;;;1.60;1.20;;;10.80;98.20;;;;;;5051615;28;20481;-77
2024/01/26 08:49:42;;;;;;;1.60;1.10;;;10.80;98.20;;;;;;5058666;28;20459;-78
2024/01/26 08:52:09;;;;;;;1.57;1.07;;;10.90;98.20;;;;;;5051744;28;20485;-78
2024/01/26 08:54:37;;;;;;;1.60;1.17;;;11.00;98.20;;;;;;5055623;28;20858;-78
2024/01/26 08:57:04;;;;;;;1.60;1.10;;;11.00;98.20;;;;;;5052589;28;20490;-76
2024/01/26 08:59:30;;;;;;;1.60;1.10;;;11.00;98.20;;;;;;5061183;28;20488;-78
2024/01/26 09:01:57;;;;;;;1.60;1.00;;;11.10;98.20;;;;;;5060411;28;20484;-78
2024/01/26 09:04:24;;;;;;;1.60;1.20;;;11.10;98.20;;;;;;5059835;28;20841;-78
2024/01/26 09:06:51;;;;;;;1.60;1.10;;;11.10;98.20;;;;;;5053590;28;21013;-77
2024/01/26 09:09:18;;;;;;;1.60;1.10;;;11.20;98.20;;;;;;5062653;28;21072;-78
2024/01/26 09:11:46;;;;;;;1.60;1.10;;;11.20;98.20;;;;;;5050693;28;20999;-78
2024/01/26 09:14:13;;;;;;;1.60;1.10;;;11.20;98.20;;;;;;5057892;28;20469;-77
2024/01/26 09:16:39;;;;;;;1.57;1.00;;;11.30;98.20;;;;;;5048897;28;20499;-77
2024/01/26 09:19:08;;;;;;;1.60;1.10;;;11.30;98.20;;;;;;5059112;28;20887;-78
2024/01/26 09:21:35;;;;;;;1.60;1.20;;;11.40;98.20;;;;;;5048529;28;20925;-77
2024/01/26 09:24:02;;;;;;;1.60;1.10;;;11.40;98.20;;;;;;5060773;28;20998;-77
2024/01/26 09:26:29;;;;;;;1.60;1.10;;;11.40;98.20;;;;;;5047010;28;20505;-78
2024/01/26 09:28:57;;;;;;;1.60;1.10;;;11.50;98.20;;;;;;5061774;28;20512;-77
2024/01/26 09:31:24;;;;;;;1.60;1.00;;;11.50;98.20;;;;;;5048413;28;20556;-77
2024/01/26 09:33:50;;;;;;;1.60;1.00;;;11.50;98.20;;;;;;5056110;28;20549;-78
2024/01/26 09:36:17;;;;;;;1.60;1.07;;;11.60;98.20;;;;;;5053406;28;20466;-78
2024/01/26 09:38:45;;;;;;;1.60;1.20;;;11.60;98.20;;;;;;5062889;28;20480;-80
2024/01/26 09:41:12;;;;;;;1.60;1.00;;;11.60;98.20;;;;;;5046381;28;20572;-80
2024/01/26 09:43:39;;;;;;;1.60;1.10;;;11.60;98.20;;;;;;5067267;28;20528;-80
2024/01/26 09:46:08;;;;;;;1.60;1.00;;;11.70;98.20;;;;;;5056764;28;20464;-79
2024/01/26 09:48:35;;;;;;;1.60;1.10;;;11.70;98.20;;;;;;5063579;28;20462;-80
2024/01/26 09:51:02;;;;;;;1.60;1.10;;;11.70;98.20;;;;;;5050587;28;20477;-81
2024/01/26 09:53:32;;;;;;;1.60;1.00;;;11.80;98.20;;;;;;5065472;28;20540;-80
2024/01/26 09:56:01;;;;;;;1.60;1.10;;;11.80;98.20;;;;;;5055175;28;20453;-79
2024/01/26 09:58:28;;;;;;;1.60;1.10;;;11.90;98.20;;;;;;5064011;28;20457;-80
2024/01/26 10:00:56;;;;;;;1.60;1.20;;;11.90;98.20;;;;;;5053324;28;20493;-80
2024/01/26 10:03:25;;;;;;;1.60;1.10;;;12.00;98.20;;;;;;5073988;28;20475;-80
2024/01/26 10:05:53;;;;;;;1.60;1.10;;;12.00;98.20;;;;;;5048083;28;20549;-76
2024/01/26 10:08:19;;;;;;;1.60;1.10;;;12.00;98.20;;;;;;5058479;28;20468;-79
2024/01/26 10:10:46;;;;;;;1.60;1.00;;;12.00;98.20;;;;;;5056416;28;20486;-79
2024/01/26 10:13:13;;;;;;;1.60;1.20;;;12.00;98.20;;;;;;5052843;28;20468;-78
2024/01/26 10:15:40;;;;;;;1.60;1.10;;;12.00;98.20;;;;;;5056608;28;20462;-78
2024/01/26 10:18:07;;;;;;;1.60;1.20;;;12.00;98.20;;;;;;5046821;28;20481;-78
2024/01/26 10:20:35;;;;;;;1.57;1.00;;;12.00;98.20;;;;;;5056639;28;20494;-77
2024/01/26 10:23:02;;;;;;;1.60;1.13;;;12.00;98.20;;;;;;5048378;28;20485;-77
2024/01/26 10:25:29;;;;;;;1.60;1.00;;;12.00;98.20;;;;;;5059398;28;20454;-78
2024/01/26 10:27:55;;;;;;;1.60;1.10;;;12.00;98.20;;;;;;5047985;28;20481;-78
2024/01/26 10:30:22;;;;;;;1.60;1.10;;;12.00;98.20;;;;;;5052625;28;20556;-78
2024/01/26 10:32:51;;;;;;;1.60;1.00;;;12.00;98.20;;;;;;5058846;28;20488;-78
2024/01/26 10:35:22;;;;;;;1.60;1.00;;;11.90;98.20;;;;;;5058188;28;20467;-78
2024/01/26 10:37:59;;;;;;;1.60;1.10;;;11.90;98.20;;;;;;5049939;28;20485;-78
2024/01/26 10:40:29;;;;;;;1.60;1.10;;;12.00;98.20;;;;;;5055706;28;20490;-77
2024/01/26 10:42:57;;;;;;;1.60;1.13;;;11.90;98.20;;;;;;5040683;28;20653;-78
2024/01/26 10:45:24;;;;;;;1.60;1.10;;;11.90;98.20;;;;;;5054587;28;20492;-78
2024/01/26 10:47:53;;;;;;;1.60;1.00;;;11.90;98.20;;;;;;5050827;28;20481;-79
2024/01/26 10:50:20;;;;;;;1.60;1.10;;;11.90;98.20;;;;;;5057005;28;20513;-77
2024/01/26 10:52:49;;;;;;;1.60;1.10;;;11.90;98.20;;;;;;5046934;28;20881;-77
2024/01/26 10:55:18;;;;;;;1.60;1.00;;;11.90;98.20;;;;;;5058895;28;21061;-78
2024/01/26 10:57:45;;;;;;;1.60;1.10;;;11.90;98.20;;;;;;5048653;28;20477;-80
2024/01/26 11:00:14;;;;;;;1.60;1.10;;;11.90;98.20;;;;;;5064043;28;20568;-80
2024/01/26 11:02:42;;;;;;;1.60;1.10;;;11.90;98.20;;;;;;5047185;28;20528;-81
2024/01/26 11:05:10;;;;;;;2.07;1.87;;;11.80;98.20;;;;;;5064338;28;20461;-80
2024/01/26 11:07:37;;;;;;;1.60;1.10;;;11.80;98.20;;;;;;5049255;28;20474;-80
2024/01/26 11:10:07;;;;;;;1.60;1.10;;;11.70;98.20;;;;;;5058295;28;20473;-80
2024/01/26 11:12:36;;;;;;;1.60;1.10;;;11.70;98.20;;;;;;5044613;28;20473;-79
2024/01/26 11:15:08;;;;;;;1.60;1.10;;;11.60;98.20;;;;;;5065090;28;20465;-80
2024/01/26 11:17:43;;;;;;;1.57;1.00;;;11.50;98.20;;;;;;5056054;28;20477;-81
2024/01/26 11:20:13;;;;;;;1.60;1.27;;;11.50;98.20;;;;;;5061822;28;20552;-79
2024/01/26 11:22:40;;;;;;;1.70;1.43;;;11.50;98.20;;;;;;5050332;28;20493;-80
2024/01/26 11:25:08;;;;;;;1.60;1.10;;;11.40;98.20;;;;;;5060510;28;20457;-79
2024/01/26 11:27:36;;;;;;;1.60;1.10;;;11.30;98.20;;;;;;5050331;28;20589;-80
2024/01/26 11:30:04;;;;;;;1.60;1.20;;;11.20;98.20;;;;;;5059791;28;20528;-79
2024/01/26 11:32:33;;;;;;;1.60;1.10;;;11.10;98.20;;;;;;5049884;28;20478;-79
2024/01/26 11:35:00;;;;;;;1.60;1.10;;;11.10;98.20;;;;;;5062754;28;20472;-80
2024/01/26 11:37:28;;;;;;;1.60;1.10;;;11.00;98.20;;;;;;5054100;28;20991;-81
2024/01/26 11:39:55;;;;;;;1.60;1.10;;;11.00;98.20;;;;;;5066420;28;20544;-81
2024/01/26 11:42:23;;;;;;;1.53;1.00;;;11.00;98.20;;;;;;5051624;28;20478;-81
2024/01/26 11:45:02;;;;;;;1.60;1.20;;;11.00;98.20;;;;;;5065834;28;20539;-80
2024/01/26 11:47:28;;;;;;;1.53;1.00;;;11.10;98.20;;;;;;5055566;28;20495;-81
2024/01/26 11:49:55;;;;;;;1.60;1.10;;;11.10;98.20;;;;;;5063752;28;20541;-80
2024/01/26 11:52:22;;;;;;;1.60;1.00;;;11.10;98.20;;;;;;5051590;28;20230;-79
2024/01/26 11:54:49;;;;;;;1.60;1.00;;;11.10;98.20;;;;;;5068893;28;20906;-79
2024/01/26 11:57:17;;;;;;;1.60;1.10;;;11.10;98.20;;;;;;5057625;28;20485;-80
2024/01/26 11:59:44;;;;;;;1.60;1.27;;;11.10;98.20;;;;;;5064097;28;20639;-81
2024/01/26 12:02:12;;;;;;;1.60;1.20;;;11.10;98.20;;;;;;5055834;28;20486;-79
2024/01/26 12:04:39;;;;;;;1.60;1.00;;;11.10;98.20;;;;;;5067334;28;20524;-80
2024/01/26 12:07:06;;;;;;;1.60;1.20;;;11.00;98.20;;;;;;5053454;28;21037;-79
2024/01/26 12:09:34;;;;;;;1.60;1.20;;;10.90;98.20;;;;;;5064620;28;20470;-79
2024/01/26 12:12:01;;;;;;;1.57;1.00;;;10.90;98.20;;;;;;5055850;28;20480;-79
2024/01/26 12:14:28;;;;;;;1.50;1.00;;;10.90;98.20;;;;;;5066094;28;20458;-80
2024/01/26 12:16:55;;;;;;;1.60;1.00;;;11.00;98.20;;;;;;5059008;28;20478;-79
2024/01/26 12:19:24;;;;;;;1.60;1.10;;;11.00;98.20;;;;;;5067528;28;20479;-80
2024/01/26 12:21:51;;;;;;;1.60;1.10;;;11.10;98.20;;;;;;5055541;28;20844;-80
2024/01/26 12:24:18;;;;;;;1.60;1.30;;;11.10;98.20;;;;;;5066744;28;20461;-80
2024/01/26 12:26:45;;;;;;;1.60;1.10;;;11.10;98.20;;;;;;5060193;28;20477;-79
2024/01/26 12:29:12;;;;;;;1.70;1.30;;;11.20;98.20;;;;;;5068444;28;20523;-81
2024/01/26 12:31:39;;;;;;;1.57;1.00;;;11.20;98.20;;;;;;5060482;28;20500;-83
2024/01/26 12:34:12;;;;;;;1.53;1.10;;;11.20;98.20;;;;;;5073767;28;20560;-81
2024/01/26 12:36:44;;;;;;;1.53;1.00;;;11.20;98.20;;;;;;5058625;28;20508;-77
2024/01/26 12:39:11;;;;;;;1.60;1.10;;;11.10;98.20;;;;;;5066250;28;20838;-79
2024/01/26 12:41:38;;;;;;;1.60;1.10;;;11.10;98.20;;;;;;5057294;28;20560;-80
2024/01/26 12:44:05;;;;;;;1.60;1.20;;;11.10;98.20;;;;;;5071775;28;20457;-80
2024/01/26 12:46:32;;;;;;;1.60;1.10;;;11.10;98.20;;;;;;5060477;28;20476;-80
2024/01/26 12:48:58;;;;;;;1.60;1.10;;;11.10;98.20;;;;;;5074360;28;20469;-81
2024/01/26 12:51:25;;;;;;;1.60;1.10;;;11.20;98.20;;;;;;5059008;28;20485;-80
2024/01/26 12:53:54;;;;;;;1.60;1.10;;;11.20;98.20;;;;;;5071384;28;21071;-79
2024/01/26 12:56:21;;;;;;;1.60;1.20;;;11.20;98.20;;;;;;5063062;28;20484;-80